Time;durP1;ratioP1;P1;durP2;ratioP2;P2;SDS_P1;SDS_P2;PMS_P1;PMS_P2;Temp;Humidity;BMP_temperature;BMP_pressure;BME280_temperature;BME280_humidity;BME280_pressure;Samples;Min_cycle;Max_cycle;Signal;HPM_P1;HPM_P2
2022/03/18 00:01:46;;;;;;;11.07;5.18;;;;;;;0.75;91.59;104042.84;5075702;28;20153;-78
2022/03/18 00:04:12;;;;;;;13.30;5.25;;;;;;;0.75;92.42;104048.09;5093031;28;20024;-78
2022/03/18 00:06:37;;;;;;;14.35;5.63;;;;;;;0.75;92.89;104045.47;5092935;28;20457;-78
2022/03/18 00:09:03;;;;;;;13.55;4.93;;;;;;;0.71;92.81;104049.84;5093571;28;20044;-78
2022/03/18 00:11:28;;;;;;;10.35;4.93;;;;;;;0.65;92.72;104053.31;5093226;28;20391;-77
2022/03/18 00:13:55;;;;;;;10.57;5.05;;;;;;;0.60;92.45;104062.03;5093543;28;20028;-79
2022/03/18 00:16:20;;;;;;;10.45;4.90;;;;;;;0.55;92.56;104064.63;5093698;28;20028;-79
2022/03/18 00:18:46;;;;;;;12.90;4.65;;;;;;;0.50;92.25;104059.38;5093220;28;20073;-79
2022/03/18 00:21:12;;;;;;;12.15;4.38;;;;;;;0.47;92.59;104058.50;5093987;28;20112;-79
2022/03/18 00:23:37;;;;;;;11.70;5.18;;;;;;;0.42;92.20;104054.97;5092712;28;20472;-78
2022/03/18 00:26:02;;;;;;;12.60;5.80;;;;;;;0.42;92.35;104055.88;5092817;28;20067;-79
2022/03/18 00:28:29;;;;;;;13.07;5.25;;;;;;;0.42;92.65;104062.84;5093340;28;20063;-78
2022/03/18 00:30:54;;;;;;;15.60;5.85;;;;;;;0.42;92.75;104068.06;5092872;28;20537;-76
2022/03/18 00:33:21;;;;;;;10.70;5.55;;;;;;;0.39;93.08;104065.44;5092989;28;20029;-79
2022/03/18 00:35:46;;;;;;;15.13;6.13;;;;;;;0.36;93.34;104066.34;5092906;28;20096;-78
2022/03/18 00:38:13;;;;;;;9.52;5.18;;;;;;;0.32;93.48;104049.72;5093147;28;20122;-79
2022/03/18 00:40:39;;;;;;;10.63;5.38;;;;;;;0.33;93.64;104068.94;5093083;28;20039;-79
2022/03/18 00:43:04;;;;;;;11.95;5.55;;;;;;;0.29;93.41;104061.94;5092969;28;20036;-79
2022/03/18 00:45:30;;;;;;;10.35;5.07;;;;;;;0.28;92.73;104070.66;5092927;28;20032;-77
2022/03/18 00:53:25;;;;;;;12.20;5.43;;;;;;;0.19;92.52;104066.25;5093370;28;20580;-78
2022/03/18 00:55:50;;;;;;;12.32;4.72;;;;;;;0.17;92.82;104073.22;5092703;28;20055;-78
2022/03/18 00:58:15;;;;;;;10.48;5.30;;;;;;;0.14;92.96;104076.69;5092377;28;20028;-79
2022/03/18 01:00:41;;;;;;;12.65;4.93;;;;;;;0.11;93.13;104075.81;5093011;28;20063;-78
2022/03/18 01:03:06;;;;;;;9.20;5.40;;;;;;;0.10;93.09;104074.91;5092744;28;20025;-79
2022/03/18 01:05:32;;;;;;;10.52;4.80;;;;;;;0.08;93.27;104075.81;5058071;28;20028;-79
2022/03/18 01:07:58;;;;;;;11.25;5.10;;;;;;;0.02;93.00;104078.38;5093131;28;20085;-79
2022/03/18 01:10:24;;;;;;;16.30;6.05;;;;;;;-0.01;92.74;104080.09;5093150;28;20365;-78
2022/03/18 01:12:49;;;;;;;14.93;5.57;;;;;;;-0.03;92.99;104081.84;5092565;28;20032;-78
2022/03/18 01:15:14;;;;;;;12.32;5.40;;;;;;;-0.06;93.08;104079.22;5093002;28;20047;-78
2022/03/18 01:17:40;;;;;;;12.50;5.50;;;;;;;-0.08;93.13;104072.22;5092539;28;20077;-79
2022/03/18 01:20:06;;;;;;;10.98;5.25;;;;;;;-0.11;93.19;104074.81;5092309;28;20058;-78
2022/03/18 01:22:32;;;;;;;13.32;5.32;;;;;;;-0.13;93.14;104071.31;5074677;28;20035;-78
2022/03/18 01:24:57;;;;;;;12.07;5.15;;;;;;;-0.17;92.90;104078.25;5092917;28;20028;-78
2022/03/18 01:27:23;;;;;;;14.15;6.13;;;;;;;-0.17;93.38;104077.41;5092489;28;20035;-78
2022/03/18 01:29:48;;;;;;;12.95;5.72;;;;;;;-0.17;93.85;104080.00;5092376;28;20040;-78
2022/03/18 01:32:13;;;;;;;14.68;6.35;;;;;;;-0.16;94.39;104085.25;5092866;28;20031;-79
2022/03/18 01:34:39;;;;;;;10.98;5.15;;;;;;;-0.17;94.48;104077.41;5091930;28;20454;-78
2022/03/18 01:37:04;;;;;;;21.27;6.63;;;;;;;-0.21;94.06;104087.84;5092552;28;20047;-78
2022/03/18 01:39:29;;;;;;;9.98;6.25;;;;;;;-0.21;93.51;104093.09;5095001;28;20040;-78
2022/03/18 01:41:55;;;;;;;15.10;6.10;;;;;;;-0.21;93.39;104087.84;5095731;28;20063;-78
2022/03/18 01:44:20;;;;;;;11.18;5.35;;;;;;;-0.24;93.40;104089.53;5095937;28;20139;-78
2022/03/18 01:46:46;;;;;;;12.15;5.53;;;;;;;-0.26;93.75;104086.06;5095978;28;20032;-78
2022/03/18 01:49:12;;;;;;;10.20;4.63;;;;;;;-0.30;93.61;104079.94;5095774;28;20070;-78
2022/03/18 01:51:39;;;;;;;12.95;5.30;;;;;;;-0.33;93.82;104072.03;5095604;28;20040;-78
2022/03/18 01:56:50;;;;;;;11.63;5.22;;;;;;;-0.35;94.09;104071.16;5095460;28;20043;-78
2022/03/18 01:59:16;;;;;;;11.98;5.80;;;;;;;-0.36;94.21;104075.53;5095262;28;20056;-79
2022/03/18 02:01:41;;;;;;;11.20;6.03;;;;;;;-0.37;94.65;104079.00;5077278;28;20107;-79
2022/03/18 02:04:09;;;;;;;9.65;5.80;;;;;;;-0.38;95.26;104068.53;5095023;28;20052;-79
2022/03/18 02:06:34;;;;;;;18.20;5.80;;;;;;;-0.41;95.54;104066.75;5095784;28;20100;-79
2022/03/18 02:08:59;;;;;;;14.18;5.28;;;;;;;-0.42;95.53;104072.88;5095469;28;20106;-79
2022/03/18 02:11:28;;;;;;;12.55;5.85;;;;;;;-0.43;95.47;104072.88;5095301;28;20028;-78
2022/03/18 02:13:57;;;;;;;10.40;5.93;;;;;;;-0.42;95.76;104091.19;5094929;28;20114;-79
2022/03/18 02:16:22;;;;;;;16.15;5.95;;;;;;;-0.43;95.74;104093.78;5096344;28;20440;-79
2022/03/18 02:18:48;;;;;;;16.30;6.15;;;;;;;-0.42;95.82;104099.03;5095146;28;20024;-79
2022/03/18 02:21:14;;;;;;;13.75;6.05;;;;;;;-0.42;95.86;104098.13;5095001;28;20413;-79
2022/03/18 02:23:41;;;;;;;17.10;5.97;;;;;;;-0.43;95.56;104099.91;5094765;28;20032;-78
2022/03/18 02:26:06;;;;;;;13.32;6.00;;;;;;;-0.40;95.98;104101.66;5094839;28;20051;-78
2022/03/18 02:28:32;;;;;;;12.30;5.03;;;;;;;-0.41;95.88;104105.13;5094896;28;20456;-78
2022/03/18 02:30:57;;;;;;;13.40;6.18;;;;;;;-0.45;95.62;104104.25;5094857;28;20024;-78
2022/03/18 02:33:22;;;;;;;13.15;5.05;;;;;;;-0.47;95.08;104115.56;5094690;28;20141;-78
2022/03/18 02:35:53;;;;;;;10.23;4.90;;;;;;;-0.49;94.82;104118.16;5094531;28;20047;-78
2022/03/18 02:38:19;;;;;;;10.07;5.40;;;;;;;-0.50;94.56;104115.53;5094781;28;20503;-78
2022/03/18 02:40:44;;;;;;;9.32;4.85;;;;;;;-0.53;94.34;104113.75;5094509;28;20078;-78
2022/03/18 02:43:09;;;;;;;9.38;5.55;;;;;;;-0.55;94.46;104107.66;5094716;28;20396;-78
2022/03/18 02:45:35;;;;;;;13.20;5.43;;;;;;;-0.55;94.37;104123.34;5094420;28;20036;-78
2022/03/18 02:48:00;;;;;;;10.90;5.22;;;;;;;-0.56;94.30;104124.19;5094054;28;20058;-78
2022/03/18 02:50:25;;;;;;;10.20;4.90;;;;;;;-0.57;94.40;104118.09;5093990;28;20491;-79
2022/03/18 02:52:51;;;;;;;12.88;5.82;;;;;;;-0.58;94.54;104125.94;5094645;28;20474;-77
2022/03/18 02:55:18;;;;;;;9.70;5.00;;;;;;;-0.60;94.71;104123.31;5094119;28;20036;-78
2022/03/18 02:57:44;;;;;;;14.90;5.28;;;;;;;-0.60;94.62;104125.03;5094154;28;20053;-78
2022/03/18 03:00:11;;;;;;;16.77;5.50;;;;;;;-0.62;94.74;104132.00;5094321;28;20058;-77
2022/03/18 03:02:36;;;;;;;9.48;4.60;;;;;;;-0.63;94.86;104144.19;5075927;28;20048;-77
2022/03/18 03:07:59;;;;;;;10.27;5.63;;;;;;;-0.62;95.52;104132.00;5094418;28;20488;-78
2022/03/18 03:10:25;;;;;;;9.85;5.13;;;;;;;-0.64;95.54;104131.97;5094104;28;20097;-79
2022/03/18 03:12:51;;;;;;;10.23;5.07;;;;;;;-0.65;95.52;104142.44;5093946;28;20039;-78
2022/03/18 03:15:16;;;;;;;11.13;5.13;;;;;;;-0.68;95.17;104137.16;5093584;28;20032;-78
2022/03/18 03:17:41;;;;;;;9.27;5.18;;;;;;;-0.69;95.45;104136.28;5094134;28;20032;-78
2022/03/18 03:20:08;;;;;;;15.20;5.45;;;;;;;-0.71;95.52;104138.00;5093942;28;20032;-77
2022/03/18 03:22:34;;;;;;;12.77;5.43;;;;;;;-0.70;95.57;104131.94;5093756;28;20026;-77
2022/03/18 03:25:00;;;;;;;8.60;4.90;;;;;;;-0.69;95.57;104138.03;5093305;28;20388;-77
2022/03/18 03:27:29;;;;;;;11.18;5.22;;;;;;;-0.72;95.65;104131.00;5093659;28;20031;-77
2022/03/18 03:30:01;;;;;;;13.55;5.40;;;;;;;-0.73;95.46;104131.91;5094259;28;20024;-79
2022/03/18 03:32:27;;;;;;;10.27;5.05;;;;;;;-0.75;95.80;104129.28;5094016;28;20350;-80
2022/03/18 03:34:54;;;;;;;9.88;5.80;;;;;;;-0.77;95.35;104133.59;5093458;28;20115;-79
2022/03/18 03:37:19;;;;;;;11.13;5.53;;;;;;;-0.77;95.25;104143.19;5093572;28;20024;-79
2022/03/18 03:39:44;;;;;;;10.07;4.55;;;;;;;-0.79;95.11;104144.88;5093746;28;20122;-78
2022/03/18 03:42:10;;;;;;;9.23;5.00;;;;;;;-0.80;94.80;104145.78;5075235;28;20036;-78
2022/03/18 03:44:35;;;;;;;11.68;4.88;;;;;;;-0.81;94.99;104144.00;5093537;28;20032;-78
2022/03/18 03:47:00;;;;;;;11.60;6.32;;;;;;;-0.83;94.83;104159.69;5093184;28;20060;-78
2022/03/18 03:49:26;;;;;;;13.38;5.20;;;;;;;-0.85;94.95;104157.91;5093272;28;20043;-77
2022/03/18 03:51:51;;;;;;;14.20;4.88;;;;;;;-0.87;94.84;104157.03;5093483;28;20433;-78
2022/03/18 03:54:16;;;;;;;12.48;5.47;;;;;;;-0.89;94.84;104157.00;5092988;28;20036;-78
2022/03/18 03:56:42;;;;;;;8.18;5.05;;;;;;;-0.92;94.50;104163.06;5093481;28;20024;-77
2022/03/18 03:59:07;;;;;;;12.75;5.68;;;;;;;-0.92;94.86;104163.06;5074817;28;20499;-78
2022/03/18 04:01:33;;;;;;;9.90;4.72;;;;;;;-0.93;94.49;104165.66;5093428;28;20093;-78
2022/03/18 04:03:58;;;;;;;13.65;5.28;;;;;;;-0.93;94.49;104168.28;5094160;28;20123;-78
2022/03/18 04:06:24;;;;;;;13.48;4.78;;;;;;;-0.96;94.55;104156.03;5093455;28;20468;-78
2022/03/18 04:08:49;;;;;;;11.00;5.25;;;;;;;-0.98;94.38;104168.22;5093365;28;20032;-78
2022/03/18 04:11:15;;;;;;;10.20;4.85;;;;;;;-1.00;94.36;104164.72;5093645;28;20043;-77
2022/03/18 04:13:40;;;;;;;7.70;4.82;;;;;;;-1.00;94.57;104171.69;5093290;28;20028;-78
2022/03/18 04:16:06;;;;;;;9.45;5.25;;;;;;;-1.01;94.70;104170.81;5094471;28;20465;-78
2022/03/18 04:18:31;;;;;;;10.20;5.15;;;;;;;-1.03;95.00;104174.25;5093312;28;20028;-77
2022/03/18 04:20:57;;;;;;;9.70;5.25;;;;;;;-1.05;94.99;104187.31;5093075;28;20110;-78
2022/03/18 04:23:22;;;;;;;9.23;4.88;;;;;;;-1.06;94.88;104193.38;5093856;28;20039;-77
2022/03/18 04:25:50;;;;;;;8.45;5.07;;;;;;;-1.07;94.57;104183.81;5075694;28;20032;-78
2022/03/18 04:28:16;;;;;;;9.18;4.70;;;;;;;-1.05;94.63;104191.69;5092890;28;20480;-77
2022/03/18 04:30:42;;;;;;;9.02;4.85;;;;;;;-1.05;94.74;104183.84;5092725;28;20036;-78
2022/03/18 04:33:07;;;;;;;12.52;4.68;;;;;;;-1.07;94.91;104181.19;5093205;28;20024;-78
2022/03/18 04:35:32;;;;;;;9.43;4.78;;;;;;;-1.08;94.76;104180.31;5093032;28;20045;-78
2022/03/18 04:37:58;;;;;;;8.52;4.72;;;;;;;-1.11;94.72;104185.50;5092823;28;20032;-78
2022/03/18 04:40:23;;;;;;;12.88;5.18;;;;;;;-1.12;94.87;104181.16;5092810;28;20460;-77
2022/03/18 04:42:49;;;;;;;13.30;5.85;;;;;;;-1.14;94.63;104185.47;5092891;28;20028;-79
2022/03/18 04:45:16;;;;;;;12.82;5.93;;;;;;;-1.12;95.17;104189.00;5092494;28;20043;-77
2022/03/18 04:47:42;;;;;;;10.57;5.55;;;;;;;-1.12;95.27;104190.72;5093078;28;20483;-77
2022/03/18 04:50:10;;;;;;;10.68;5.75;;;;;;;-1.14;95.19;104185.47;5092744;28;20464;-77
2022/03/18 04:52:36;;;;;;;15.18;5.30;;;;;;;-1.16;95.22;104199.41;5092958;28;20028;-79
2022/03/18 04:55:03;;;;;;;10.05;5.00;;;;;;;-1.18;94.95;104202.00;5093177;28;20032;-77
2022/03/18 04:57:28;;;;;;;8.63;5.00;;;;;;;-1.19;94.83;104197.59;5092767;28;20068;-77
2022/03/18 04:59:54;;;;;;;8.27;5.45;;;;;;;-1.18;94.81;104199.38;5074055;28;20048;-77
2022/03/18 05:02:22;;;;;;;12.63;4.70;;;;;;;-1.20;95.24;104206.28;5092145;28;20043;-78
2022/03/18 05:04:48;;;;;;;6.80;4.50;;;;;;;-1.20;95.02;104213.28;5092175;28;20388;-77
2022/03/18 05:07:15;;;;;;;10.35;5.10;;;;;;;-1.20;94.94;104210.66;5092141;28;20028;-78
2022/03/18 05:09:41;;;;;;;7.20;4.82;;;;;;;-1.20;95.14;104221.09;5092755;28;20133;-78
2022/03/18 05:12:11;;;;;;;9.55;5.28;;;;;;;-1.22;95.44;104217.56;5092462;28;20028;-78
2022/03/18 05:14:40;;;;;;;8.68;4.70;;;;;;;-1.23;95.29;104218.47;5095866;28;20137;-78
2022/03/18 05:17:07;;;;;;;8.32;5.25;;;;;;;-1.23;95.50;104215.84;5096130;28;20143;-78
2022/03/18 05:19:34;;;;;;;13.50;5.40;;;;;;;-1.23;95.41;104216.72;5097028;28;20035;-78
2022/03/18 05:21:59;;;;;;;10.43;4.78;;;;;;;-1.23;95.33;104231.53;5096535;28;20040;-78
2022/03/18 05:24:27;;;;;;;10.00;4.95;;;;;;;-1.23;95.21;104232.38;5096288;28;20039;-78
2022/03/18 05:26:54;;;;;;;7.97;4.30;;;;;;;-1.26;94.78;104235.84;5096403;28;20115;-78
2022/03/18 05:29:19;;;;;;;8.10;4.78;;;;;;;-1.26;95.22;104243.66;5095917;28;20452;-78
2022/03/18 05:31:46;;;;;;;8.68;5.07;;;;;;;-1.26;95.04;104246.28;5095870;28;20047;-78
2022/03/18 05:34:12;;;;;;;10.35;4.90;;;;;;;-1.27;95.19;104251.50;5095964;28;20103;-79
2022/03/18 05:36:38;;;;;;;7.50;4.53;;;;;;;-1.30;95.01;104256.69;5096557;28;20032;-78
2022/03/18 05:39:04;;;;;;;10.73;5.35;;;;;;;-1.29;94.67;104261.06;5096155;28;20039;-78
2022/03/18 05:41:29;;;;;;;11.75;5.07;;;;;;;-1.29;94.68;104267.16;5078100;28;20112;-78
2022/03/18 05:43:55;;;;;;;11.57;5.45;;;;;;;-1.28;94.74;104281.97;5078397;28;20116;-78
2022/03/18 05:46:20;;;;;;;12.05;4.90;;;;;;;-1.28;94.94;104276.75;5096209;28;20452;-78
2022/03/18 05:48:45;;;;;;;7.70;4.70;;;;;;;-1.26;95.18;104276.78;5096375;28;20043;-79
2022/03/18 05:51:11;;;;;;;15.38;5.25;;;;;;;-1.23;95.40;104278.56;5077879;28;20036;-79
2022/03/18 05:53:37;;;;;;;10.82;5.00;;;;;;;-1.22;95.99;104278.59;5077688;28;20122;-78
2022/03/18 05:58:48;;;;;;;11.00;5.95;;;;;;;-1.21;95.90;104285.53;5096018;28;20479;-78
2022/03/18 06:01:14;;;;;;;10.35;6.05;;;;;;;-1.21;96.00;104282.06;5096170;28;20119;-78
2022/03/18 06:03:40;;;;;;;14.38;6.60;;;;;;;-1.22;95.99;104286.41;5077578;28;20060;-78
2022/03/18 06:06:06;;;;;;;11.32;6.43;;;;;;;-1.20;96.05;104291.66;5095531;28;20040;-78
2022/03/18 06:14:00;;;;;;;14.55;6.13;;;;;;;-1.06;97.60;104284.88;5095570;28;20176;-77
2022/03/18 06:16:25;;;;;;;9.40;5.70;;;;;;;-1.01;98.00;104298.91;5077082;28;20056;-78
2022/03/18 06:18:51;;;;;;;16.77;7.13;;;;;;;-0.98;98.13;104292.84;5077504;28;20032;-78
2022/03/18 06:21:16;;;;;;;11.82;5.90;;;;;;;-0.95;98.38;104298.13;5095650;28;20028;-79
2022/03/18 06:23:42;;;;;;;14.65;5.88;;;;;;;-0.92;98.32;104300.78;5095408;28;20454;-79
2022/03/18 06:26:08;;;;;;;14.25;7.18;;;;;;;-0.87;98.51;104308.66;5095521;28;20024;-76
2022/03/18 06:28:33;;;;;;;18.17;10.88;;;;;;;-0.82;98.74;104315.72;5095110;28;20043;-79
2022/03/18 06:30:59;;;;;;;15.50;8.77;;;;;;;-0.78;98.62;104314.88;5095090;28;20035;-79
2022/03/18 06:33:24;;;;;;;15.25;8.52;;;;;;;-0.72;98.93;104322.84;5095300;28;20353;-79
2022/03/18 06:35:49;;;;;;;12.02;7.20;;;;;;;-0.63;98.91;104327.28;5094825;28;20425;-79
2022/03/18 06:38:15;;;;;;;13.85;7.60;;;;;;;-0.55;99.48;104324.78;5095103;28;20036;-77
2022/03/18 06:40:40;;;;;;;12.70;6.25;;;;;;;-0.44;99.53;104335.38;5095083;28;20028;-78
2022/03/18 06:43:06;;;;;;;12.75;6.88;;;;;;;-0.35;99.76;104335.47;5077146;28;20032;-78
2022/03/18 06:45:31;;;;;;;13.02;6.25;;;;;;;-0.27;100.00;104341.69;5094776;28;20088;-78
2022/03/18 06:47:57;;;;;;;9.63;6.57;;;;;;;-0.16;100.00;104339.16;5094740;28;20044;-78
2022/03/18 06:50:24;;;;;;;12.20;6.55;;;;;;;-0.06;100.00;104333.16;5094792;28;20058;-78
2022/03/18 06:52:50;;;;;;;13.02;7.45;;;;;;;0.05;100.00;104340.25;5077422;28;20075;-79
2022/03/18 06:55:15;;;;;;;15.05;6.93;;;;;;;0.14;100.00;104340.34;5094538;28;20165;-79
2022/03/18 06:57:42;;;;;;;12.75;6.60;;;;;;;0.23;100.00;104345.66;5095184;28;20024;-79
2022/03/18 07:00:08;;;;;;;12.25;6.82;;;;;;;0.33;100.00;104334.41;5093929;28;20135;-79
2022/03/18 07:02:34;;;;;;;11.88;6.22;;;;;;;0.46;100.00;104340.63;5094461;28;20051;-79
2022/03/18 07:04:59;;;;;;;13.60;6.78;;;;;;;0.58;100.00;104350.31;5094244;28;20039;-77
2022/03/18 07:07:24;;;;;;;8.73;6.20;;;;;;;0.73;100.00;104353.91;5094476;28;20039;-78
2022/03/18 07:09:50;;;;;;;18.17;7.55;;;;;;;0.86;100.00;104354.00;5075997;28;20068;-79
2022/03/18 07:12:16;;;;;;;12.77;6.88;;;;;;;0.99;100.00;104352.34;5093894;28;20055;-76
2022/03/18 07:14:41;;;;;;;12.02;6.53;;;;;;;1.18;100.00;104353.34;5093945;28;20468;-77
2022/03/18 07:19:52;;;;;;;12.68;7.40;;;;;;;1.58;100.00;104352.63;5094059;28;20097;-77
2022/03/18 07:22:18;;;;;;;14.90;8.00;;;;;;;1.72;100.00;104353.56;5094046;28;20108;-77
2022/03/18 07:24:43;;;;;;;13.10;8.05;;;;;;;1.90;100.00;104355.34;5094237;28;20032;-79
2022/03/18 07:27:09;;;;;;;15.70;8.35;;;;;;;2.10;100.00;104359.75;5094242;28;20468;-78
2022/03/18 07:29:35;;;;;;;16.85;8.18;;;;;;;2.27;100.00;104355.41;5093998;28;20116;-78
2022/03/18 07:32:00;;;;;;;12.18;7.90;;;;;;;2.47;100.00;104365.03;5075669;28;20115;-78
2022/03/18 07:34:26;;;;;;;14.75;7.78;;;;;;;2.65;100.00;104357.13;5094142;28;20032;-78
2022/03/18 07:36:52;;;;;;;14.65;8.10;;;;;;;2.83;100.00;104372.03;5075240;28;20031;-78
2022/03/18 07:39:17;;;;;;;13.70;7.10;;;;;;;3.02;100.00;104377.28;5094227;28;20040;-78
2022/03/18 07:41:43;;;;;;;19.73;8.82;;;;;;;3.21;100.00;104383.38;5093862;28;20032;-79
2022/03/18 07:44:08;;;;;;;17.63;9.05;;;;;;;3.47;100.00;104396.44;5093788;28;20028;-79
2022/03/18 07:46:34;;;;;;;20.17;9.07;;;;;;;3.70;100.00;104398.09;5093985;28;20126;-79
2022/03/18 07:49:00;;;;;;;21.23;8.55;;;;;;;3.92;100.00;104405.91;5093817;28;20032;-79
2022/03/18 07:51:26;;;;;;;16.85;8.18;;;;;;;4.10;100.00;104402.28;5093697;28;20035;-79
2022/03/18 07:53:51;;;;;;;16.65;7.30;;;;;;;4.27;100.00;104410.06;5093737;28;20035;-79
2022/03/18 07:56:17;;;;;;;15.32;6.38;;;;;;;4.50;100.00;104417.81;5075562;28;20124;-78
2022/03/18 07:58:42;;;;;;;14.00;6.50;;;;;;;4.81;100.00;104420.19;5074939;28;20452;-78
2022/03/18 08:01:10;;;;;;;10.90;5.95;;;;;;;5.18;100.00;104423.38;5094159;28;20107;-79
2022/03/18 08:03:36;;;;;;;14.68;5.88;;;;;;;5.64;98.17;104428.13;5094157;28;20267;-79
2022/03/18 08:06:01;;;;;;;12.38;5.38;;;;;;;6.10;92.11;104429.28;5093487;28;20020;-79
2022/03/18 08:08:27;;;;;;;15.98;5.50;;;;;;;6.64;85.51;104432.88;5093500;28;20524;-77
2022/03/18 08:10:53;;;;;;;16.40;6.07;;;;;;;7.24;81.74;104435.34;5093659;28;20036;-78
2022/03/18 08:13:19;;;;;;;13.90;6.05;;;;;;;7.86;76.94;104439.38;5093641;28;20028;-77
2022/03/18 08:15:45;;;;;;;17.85;5.53;;;;;;;8.36;74.25;104451.53;5093867;28;20036;-78
2022/03/18 08:18:11;;;;;;;14.45;5.50;;;;;;;8.71;75.09;104448.06;5075704;28;20066;-78
2022/03/18 08:20:40;;;;;;;10.15;4.22;;;;;;;8.91;75.61;104446.69;5093328;28;20024;-78
2022/03/18 08:23:14;;;;;;;14.85;4.72;;;;;;;8.92;74.67;104449.28;5093233;28;20031;-78
2022/03/18 08:25:40;;;;;;;14.23;5.35;;;;;;;8.95;75.18;104458.97;5093046;28;20107;-78
2022/03/18 08:28:07;;;;;;;14.52;4.55;;;;;;;9.08;74.58;104452.44;5093131;28;20036;-78
2022/03/18 08:30:32;;;;;;;17.75;4.50;;;;;;;9.26;73.00;104444.88;5075087;28;20043;-78
2022/03/18 08:32:58;;;;;;;14.45;4.05;;;;;;;9.53;73.07;104456.50;5092994;28;20020;-77
2022/03/18 08:35:23;;;;;;;16.10;4.60;;;;;;;9.74;71.51;104449.69;5092773;28;20111;-78
2022/03/18 08:37:58;;;;;;;18.30;5.40;;;;;;;9.99;72.41;104446.31;5093074;28;20036;-78
2022/03/18 08:40:23;;;;;;;15.95;4.70;;;;;;;10.35;70.95;104446.97;5093346;28;20032;-77
2022/03/18 08:42:49;;;;;;;16.15;4.18;;;;;;;10.79;70.10;104448.19;5093355;28;20032;-79
2022/03/18 08:45:14;;;;;;;12.40;4.38;;;;;;;11.38;67.25;104461.22;5093726;28;20115;-77
2022/03/18 08:47:40;;;;;;;18.40;4.45;;;;;;;12.10;65.38;104462.09;5095024;28;20464;-79
2022/03/18 08:50:06;;;;;;;12.18;3.72;;;;;;;12.67;61.93;104470.47;5097228;28;20460;-77
2022/03/18 08:52:31;;;;;;;14.82;4.28;;;;;;;13.13;60.56;104478.31;5096496;28;20458;-76
2022/03/18 08:54:57;;;;;;;16.30;4.32;;;;;;;13.38;59.83;104473.66;5096971;28;20117;-79
2022/03/18 08:57:22;;;;;;;11.35;4.45;;;;;;;13.40;58.68;104468.22;5078791;28;20456;-78
2022/03/18 08:59:48;;;;;;;10.95;4.68;;;;;;;13.29;59.22;104479.38;5096951;28;20059;-78
2022/03/18 09:02:13;;;;;;;16.77;4.97;;;;;;;12.97;59.55;104484.34;5097227;28;20028;-79
2022/03/18 09:04:38;;;;;;;15.60;4.90;;;;;;;13.78;58.58;104492.38;5096856;28;20078;-78
2022/03/18 09:07:04;;;;;;;11.63;4.97;;;;;;;14.80;53.77;104485.66;5096802;28;20111;-79
2022/03/18 09:09:30;;;;;;;13.20;4.85;;;;;;;16.17;50.09;104490.03;5097170;28;20047;-78
2022/03/18 09:11:55;;;;;;;12.73;4.57;;;;;;;17.27;46.37;104488.00;5096969;28;20040;-79
2022/03/18 09:14:21;;;;;;;11.52;4.43;;;;;;;18.30;43.61;104490.47;5096776;28;20024;-79
2022/03/18 09:16:48;;;;;;;12.05;4.65;;;;;;;18.95;41.09;104492.41;5097203;28;20032;-80
2022/03/18 09:19:14;;;;;;;14.60;4.93;;;;;;;18.92;40.75;104489.94;5096657;28;20104;-79
2022/03/18 09:21:40;;;;;;;12.48;4.90;;;;;;;19.14;40.11;104496.56;5096499;28;20465;-78
2022/03/18 09:24:06;;;;;;;14.65;4.07;;;;;;;19.31;39.33;104503.44;5078437;28;20039;-78
2022/03/18 09:26:31;;;;;;;15.82;4.68;;;;;;;20.11;37.97;104504.94;5096164;28;20054;-79
2022/03/18 09:28:56;;;;;;;16.55;4.72;;;;;;;20.36;37.25;104509.38;5096146;28;20093;-78
2022/03/18 09:31:22;;;;;;;15.63;4.57;;;;;;;20.82;37.14;104518.59;5096394;28;20387;-78
2022/03/18 09:33:48;;;;;;;12.23;4.80;;;;;;;21.09;35.80;104518.28;5078433;28;20028;-78
2022/03/18 09:36:18;;;;;;;14.95;4.85;;;;;;;21.16;34.93;104526.81;5096244;28;20376;-79
2022/03/18 09:38:45;;;;;;;25.52;5.57;;;;;;;20.58;36.08;104520.31;5096923;28;20111;-78
2022/03/18 09:41:11;;;;;;;13.98;4.80;;;;;;;21.35;34.94;104521.66;5096366;28;20032;-78
2022/03/18 09:43:38;;;;;;;12.90;5.10;;;;;;;21.02;35.76;104536.88;5095763;28;20039;-78
2022/03/18 09:46:04;;;;;;;11.38;5.18;;;;;;;21.60;34.98;104531.44;5095695;28;20032;-78
2022/03/18 09:48:30;;;;;;;12.00;4.70;;;;;;;21.31;34.43;104536.41;5095990;28;20048;-78
2022/03/18 09:50:56;;;;;;;15.52;4.60;;;;;;;20.94;36.11;104533.88;5095828;28;20389;-79
2022/03/18 09:53:21;;;;;;;15.90;5.28;;;;;;;20.70;36.62;104532.06;5095917;28;20052;-80
2022/03/18 09:55:49;;;;;;;12.07;4.82;;;;;;;21.22;35.49;104531.72;5095060;28;20329;-81
2022/03/18 09:58:15;;;;;;;17.58;4.72;;;;;;;21.61;35.27;104537.69;5095130;28;20032;-81
2022/03/18 10:00:40;;;;;;;10.30;4.05;;;;;;;21.98;34.73;104534.72;5094405;28;20044;-78
2022/03/18 10:03:10;;;;;;;9.93;4.10;;;;;;;22.08;34.57;104534.81;5095044;28;20127;-80
2022/03/18 10:05:46;;;;;;;9.52;4.00;;;;;;;21.72;34.19;104534.13;5094942;28;20436;-80
2022/03/18 10:08:11;;;;;;;14.50;4.28;;;;;;;22.25;35.33;104534.28;5095386;28;20024;-79
2022/03/18 10:10:44;;;;;;;15.25;4.60;;;;;;;22.28;34.75;104538.59;5095202;28;20032;-78
2022/03/18 10:13:10;;;;;;;13.93;4.40;;;;;;;22.56;33.36;104533.59;5096040;28;20028;-79
2022/03/18 10:15:36;;;;;;;10.52;4.30;;;;;;;21.90;34.57;104538.06;5095541;28;20483;-81
2022/03/18 10:18:02;;;;;;;12.05;4.18;;;;;;;22.33;33.80;104539.09;5095023;28;20028;-80
2022/03/18 10:20:38;;;;;;;9.50;4.15;;;;;;;21.83;35.03;104539.53;5095018;28;20035;-79
2022/03/18 10:23:10;;;;;;;18.13;4.32;;;;;;;21.86;35.47;104547.44;5095761;28;20118;-79
2022/03/18 10:25:51;;;;;;;11.80;4.15;;;;;;;22.06;34.53;104542.22;5095109;28;20038;-77
2022/03/18 10:28:44;;;;;;;12.38;4.35;;;;;;;22.21;35.29;104546.38;5095338;28;20024;-79
2022/03/18 10:31:11;;;;;;;13.38;4.22;;;;;;;22.08;35.74;104543.81;5094809;28;20132;-78
2022/03/18 10:39:34;;;;;;;12.27;4.15;;;;;;;22.22;34.35;104547.25;5094494;28;20075;-79
2022/03/18 10:42:02;;;;;;;11.55;3.85;;;;;;;21.72;36.03;104543.13;5094336;28;20032;-79
2022/03/18 10:44:46;;;;;;;12.60;3.85;;;;;;;22.27;34.33;104545.00;5094440;28;20115;-79
2022/03/18 10:47:31;;;;;;;11.57;4.18;;;;;;;22.14;34.27;104543.31;5094163;28;20065;-80
2022/03/18 10:50:12;;;;;;;11.68;4.10;;;;;;;22.33;33.43;104548.13;5093976;28;20039;-80
2022/03/18 10:52:38;;;;;;;10.82;3.80;;;;;;;22.34;33.62;104554.38;5093873;28;20414;-79
2022/03/18 10:55:21;;;;;;;11.55;5.47;;;;;;;22.22;35.20;104555.38;5094342;28;20032;-80
2022/03/18 10:57:54;;;;;;;10.18;3.85;;;;;;;22.70;34.67;104557.72;5094454;28;20028;-79
2022/03/18 11:00:25;;;;;;;13.63;4.43;;;;;;;22.76;33.00;104551.75;5094549;28;20048;-79
2022/03/18 11:02:53;;;;;;;11.13;4.10;;;;;;;22.19;34.74;104553.78;5094942;28;20044;-79
2022/03/18 11:05:22;;;;;;;9.32;3.75;;;;;;;21.71;34.59;104562.22;5094092;28;20063;-80
2022/03/18 11:07:50;;;;;;;12.43;4.25;;;;;;;21.66;35.79;104558.03;5094009;28;20027;-79
2022/03/18 11:13:13;;;;;;;12.60;4.45;;;;;;;20.45;37.17;104568.19;5063089;28;20044;-78
2022/03/18 11:15:43;;;;;;;10.23;3.90;;;;;;;20.65;38.72;104557.75;5094300;28;20028;-80
2022/03/18 11:18:11;;;;;;;12.77;4.60;;;;;;;20.61;38.50;104563.34;5075882;28;20116;-80
2022/03/18 11:20:44;;;;;;;9.32;4.15;;;;;;;20.91;37.15;104566.59;5094539;28;20028;-80
2022/03/18 11:23:22;;;;;;;13.43;4.38;;;;;;;21.42;36.35;104565.34;5094549;28;20034;-81
2022/03/18 11:25:53;;;;;;;8.88;3.88;;;;;;;21.32;35.44;104565.25;5094618;28;20372;-82
2022/03/18 11:28:20;;;;;;;8.00;3.60;;;;;;;21.37;34.71;104567.59;5094198;28;20098;-81
2022/03/18 11:30:48;;;;;;;11.88;3.85;;;;;;;21.19;35.33;104570.75;5093664;28;20119;-79
2022/03/18 11:33:13;;;;;;;8.65;3.75;;;;;;;21.21;35.18;104566.06;5093484;28;20112;-79
2022/03/18 11:35:48;;;;;;;11.90;3.55;;;;;;;21.52;35.32;104565.53;5093654;28;20052;-80
2022/03/18 11:38:14;;;;;;;13.05;4.20;;;;;;;21.40;35.57;104564.63;5093503;28;20028;-80
2022/03/18 11:41:01;;;;;;;10.23;3.90;;;;;;;21.86;34.10;104562.84;5093499;28;20032;-79
2022/03/18 11:43:37;;;;;;;12.43;3.92;;;;;;;21.50;37.11;104565.66;5093524;28;20027;-79
2022/03/18 11:46:17;;;;;;;10.82;4.63;;;;;;;21.47;35.51;104558.59;5093900;28;20027;-79
2022/03/18 11:48:54;;;;;;;13.25;3.88;;;;;;;21.31;35.27;104564.34;5093077;28;20115;-76